Mingo, Iowa
Current Conditions -  °F | °C
As of 12:55 PM on Friday 26 Dec 2014 (Local Time) from KTNU Reporting Station
Few Clouds Few Clouds  
Wind Chill: 33°   Ceiling: Unl
Heat Index: 37°   Visibility: 10mi
Dew Point: 34°   Wind: 6mph
Humidity: 87%   Direction: 280°W
Pressure: 29.94"   Gusts: 13mph
Location:  41.77°N, 93.28°W
Report Text: KTNU 261855Z AUTO 28005G11KT 10SM FEW013 FEW120 03/01 A2994 RMK AO2
Loading
Personal Weather Stations






























Interactive Weather Map New forecast layout! Learn more

10-Day Weather Forecast

Advertisements
Track Severe Weather on mobile